Time;durP1;ratioP1;P1;durP2;ratioP2;P2;SDS_P1;SDS_P2;PMS_P1;PMS_P2;Temp;Humidity;BMP_temperature;BMP_pressure;BME280_temperature;BME280_humidity;BME280_pressure;Samples;Min_cycle;Max_cycle;Signal;HPM_P1;HPM_P2
2024/02/14 00:00:24;;;;;;;0.05;0.05;;;;;;;7.66;55.38;100375.97;4223431;33;33465;-84
2024/02/14 00:02:52;;;;;;;0.40;0.40;;;;;;;7.67;55.22;100376.81;4201322;33;32504;-83
2024/02/14 00:05:20;;;;;;;0.00;0.00;;;;;;;7.85;54.61;100381.66;4222188;33;34308;-83
2024/02/14 00:07:48;;;;;;;0.22;0.22;;;;;;;7.95;54.48;100379.69;4223760;33;34455;-84
2024/02/14 00:10:16;;;;;;;0.10;0.10;;;;;;;7.99;54.29;100386.59;4225186;33;33972;-84
2024/02/14 00:12:44;;;;;;;0.60;0.60;;;;;;;8.10;54.03;100374.03;4221018;33;33934;-84
2024/02/14 00:15:12;;;;;;;0.45;0.45;;;;;;;8.09;53.60;100376.72;4224308;33;33681;-84
2024/02/14 00:17:40;;;;;;;0.22;0.22;;;;;;;8.29;53.36;100381.50;4211784;33;34894;-83
2024/02/14 00:20:12;;;;;;;0.20;0.15;;;;;;;8.13;53.65;100381.00;4225888;33;34082;-84
2024/02/14 00:22:49;;;;;;;0.20;0.20;;;;;;;8.24;53.26;100373.72;4217194;33;32855;-84
2024/02/14 00:25:17;;;;;;;0.93;0.93;;;;;;;8.18;53.63;100384.41;4190272;33;33192;-84
2024/02/14 00:27:49;;;;;;;0.00;0.00;;;;;;;8.10;53.82;100376.69;4223073;33;33352;-83
2024/02/14 00:30:17;;;;;;;0.45;0.45;;;;;;;8.00;54.09;100387.47;4211848;33;33092;-83
2024/02/14 00:33:04;;;;;;;0.65;0.65;;;;;;;8.07;53.91;100383.78;4214573;33;32829;-83
2024/02/14 00:35:32;;;;;;;0.10;0.10;;;;;;;8.02;53.90;100385.66;4213010;33;32910;-83
2024/02/14 00:38:00;;;;;;;0.82;0.82;;;;;;;8.13;53.29;100387.13;4226135;33;32967;-83
2024/02/14 00:40:28;;;;;;;0.60;0.60;;;;;;;7.94;54.25;100397.22;4214513;33;32689;-83
2024/02/14 00:42:56;;;;;;;0.13;0.13;;;;;;;7.92;53.88;100404.28;4203552;33;34668;-83
2024/02/14 00:45:24;;;;;;;0.08;0.08;;;;;;;7.97;53.98;100401.53;4218943;33;33415;-83
2024/02/14 00:47:51;;;;;;;0.00;0.00;;;;;;;7.91;54.17;100397.28;4203443;33;33792;-83
2024/02/14 00:50:19;;;;;;;0.35;0.35;;;;;;;7.92;53.62;100396.37;4224611;33;32494;-83
2024/02/14 00:52:47;;;;;;;0.10;0.10;;;;;;;7.67;54.43;100403.97;4199213;33;33110;-83
2024/02/14 00:55:15;;;;;;;0.00;0.00;;;;;;;7.79;54.10;100402.84;4213064;33;33941;-83
2024/02/14 00:57:43;;;;;;;0.28;0.28;;;;;;;7.78;54.40;100402.84;4224274;33;33155;-83
2024/02/14 01:00:11;;;;;;;0.10;0.10;;;;;;;7.82;54.11;100397.50;4226930;33;32287;-83
2024/02/14 01:02:38;;;;;;;0.22;0.22;;;;;;;7.69;54.22;100401.28;4190099;33;33549;-83
2024/02/14 01:05:07;;;;;;;0.17;0.17;;;;;;;7.58;54.36;100393.66;4201350;33;32498;-83
2024/02/14 01:07:35;;;;;;;0.95;0.95;;;;;;;7.65;54.15;100407.53;4213738;33;33458;-83
2024/02/14 01:10:03;;;;;;;0.60;0.45;;;;;;;7.89;53.45;100404.38;4231875;33;34263;-83
2024/02/14 01:12:32;;;;;;;0.43;0.43;;;;;;;7.86;53.50;100403.56;4203342;33;33888;-83
2024/02/14 01:14:59;;;;;;;0.90;0.73;;;;;;;7.73;53.92;100400.34;4227022;33;33379;-83
2024/02/14 01:17:29;;;;;;;0.62;0.37;;;;;;;7.76;53.57;100402.03;4224064;33;34225;-84
2024/02/14 01:19:58;;;;;;;1.30;1.20;;;;;;;7.91;53.41;100401.69;4202949;33;33703;-85
2024/02/14 01:22:25;;;;;;;0.17;0.17;;;;;;;7.80;53.50;100403.72;4194920;33;33422;-85
2024/02/14 01:25:04;;;;;;;0.20;0.20;;;;;;;7.91;53.47;100406.94;4224673;33;33898;-84
2024/02/14 01:27:33;;;;;;;0.57;0.57;;;;;;;7.65;54.04;100400.53;4225903;33;34400;-85
2024/02/14 01:30:00;;;;;;;5.50;1.17;;;;;;;7.78;53.66;100403.72;4224937;33;33567;-85
2024/02/14 01:32:31;;;;;;;0.52;0.52;;;;;;;7.80;52.82;100403.72;4238017;33;33843;-85
2024/02/14 01:35:00;;;;;;;0.10;0.10;;;;;;;7.83;53.07;100404.50;4212739;33;34825;-85
2024/02/14 01:37:30;;;;;;;0.65;0.65;;;;;;;7.71;53.20;100404.78;4208963;33;34078;-85
2024/02/14 01:39:58;;;;;;;0.10;0.10;;;;;;;7.80;53.14;100394.06;4214979;33;33341;-84
2024/02/14 01:42:27;;;;;;;0.10;0.10;;;;;;;7.76;53.17;100387.13;4200963;33;34565;-84
2024/02/14 01:44:55;;;;;;;0.68;0.68;;;;;;;7.64;53.36;100384.75;4224945;33;33868;-83
2024/02/14 01:47:23;;;;;;;0.37;0.37;;;;;;;7.43;53.52;100394.00;4201268;33;34089;-83
2024/02/14 01:49:50;;;;;;;0.37;0.37;;;;;;;7.31;53.85;100395.12;4223247;33;32182;-83
2024/02/14 01:52:18;;;;;;;0.40;0.40;;;;;;;7.46;52.99;100396.56;4202850;33;33846;-83
2024/02/14 01:54:46;;;;;;;0.00;0.00;;;;;;;7.48;53.01;100399.16;4223675;33;33573;-84
2024/02/14 01:57:14;;;;;;;0.00;0.00;;;;;;;7.58;52.53;100393.66;4214375;33;33419;-84
2024/02/14 01:59:42;;;;;;;3.00;0.88;;;;;;;7.54;52.72;100401.62;4219675;33;34050;-84
2024/02/14 02:02:10;;;;;;;0.00;0.00;;;;;;;7.66;52.23;100401.38;4201567;33;33809;-84
2024/02/14 02:04:37;;;;;;;0.00;0.00;;;;;;;7.69;52.26;100401.28;4223747;33;33180;-83
2024/02/14 02:07:05;;;;;;;0.05;0.05;;;;;;;7.54;52.29;100396.37;4227592;33;34189;-84
2024/02/14 02:09:33;;;;;;;1.85;0.20;;;;;;;7.56;52.28;100395.47;4224092;33;33244;-83
2024/02/14 02:12:03;;;;;;;0.50;0.50;;;;;;;7.55;52.12;100406.87;4191627;33;32792;-84
2024/02/14 02:14:51;;;;;;;0.52;0.52;;;;;;;7.75;51.92;100402.94;4215963;33;33601;-83
2024/02/14 02:17:39;;;;;;;0.00;0.00;;;;;;;7.60;52.23;100406.78;4224043;33;34356;-84
2024/02/14 02:20:27;;;;;;;0.25;0.25;;;;;;;7.51;51.95;100410.47;4205993;33;33900;-84
2024/02/14 02:22:56;;;;;;;0.25;0.25;;;;;;;7.42;52.22;100416.78;4210283;33;32627;-84
2024/02/14 02:25:44;;;;;;;0.65;0.65;;;;;;;7.34;52.48;100416.06;4219202;33;34739;-83
2024/02/14 02:28:31;;;;;;;0.10;0.10;;;;;;;7.17;53.20;100418.19;4203611;33;33731;-84
2024/02/14 02:30:59;;;;;;;0.30;0.30;;;;;;;7.13;53.29;100414.75;4221912;33;33330;-83
2024/02/14 02:33:28;;;;;;;0.40;0.40;;;;;;;7.16;52.93;100413.81;4228512;33;34698;-83
2024/02/14 02:35:55;;;;;;;0.77;0.75;;;;;;;7.02;53.16;100423.72;4236622;33;34666;-84
2024/02/14 02:38:43;;;;;;;0.20;0.20;;;;;;;6.99;53.72;100435.16;4214410;33;34450;-84
2024/02/14 02:41:33;;;;;;;0.37;0.37;;;;;;;7.12;52.76;100426.16;4221987;33;32831;-84
2024/02/14 02:44:19;;;;;;;0.10;0.10;;;;;;;6.99;53.12;100436.94;4215793;33;34670;-84
2024/02/14 02:47:05;;;;;;;0.22;0.22;;;;;;;7.10;52.88;100432.31;4214828;33;35719;-84
2024/02/14 02:49:53;;;;;;;0.00;0.00;;;;;;;6.82;53.63;100438.09;4223538;33;33335;-84
2024/02/14 02:52:28;;;;;;;0.37;0.37;;;;;;;7.16;52.85;100432.19;4213677;33;33055;-84
2024/02/14 02:55:17;;;;;;;0.52;0.52;;;;;;;7.13;52.55;100434.91;4207459;33;33509;-84
2024/02/14 02:57:48;;;;;;;0.00;0.00;;;;;;;7.06;52.82;100449.88;4201100;33;33287;-84
2024/02/14 03:00:16;;;;;;;0.35;0.35;;;;;;;6.88;53.22;100455.47;4211849;33;33367;-84
2024/02/14 03:02:48;;;;;;;0.35;0.20;;;;;;;6.75;53.79;100454.84;4228128;33;32553;-84
2024/02/14 03:05:36;;;;;;;0.00;0.00;;;;;;;6.71;53.79;100455.78;4205626;33;34151;-84
2024/02/14 03:08:17;;;;;;;0.40;0.40;;;;;;;6.58;54.43;100462.12;4211684;33;34793;-84
2024/02/14 03:11:06;;;;;;;0.30;0.20;;;;;;;6.58;54.28;100464.75;4196196;33;33150;-85
2024/02/14 03:13:54;;;;;;;0.43;0.43;;;;;;;6.49;54.32;100470.16;4216216;33;34319;-84
2024/02/14 03:16:42;;;;;;;0.00;0.00;;;;;;;6.30;55.08;100472.22;4205983;33;33892;-84
2024/02/14 03:19:10;;;;;;;0.50;0.50;;;;;;;6.55;54.07;100472.69;4214211;33;33131;-84
2024/02/14 03:21:38;;;;;;;0.00;0.00;;;;;;;6.29;54.36;100465.22;4207461;33;33917;-84
2024/02/14 03:24:09;;;;;;;0.00;0.00;;;;;;;6.17;55.07;100468.91;4200200;33;32389;-83
2024/02/14 03:26:37;;;;;;;1.05;0.95;;;;;;;6.05;55.51;100475.19;4223308;33;33410;-84
2024/02/14 03:29:10;;;;;;;0.10;0.10;;;;;;;6.12;55.03;100473.34;4212546;33;35776;-84
2024/02/14 03:31:38;;;;;;;0.08;0.08;;;;;;;6.09;55.00;100481.28;4227745;33;34634;-84
2024/02/14 03:34:06;;;;;;;1.52;1.08;;;;;;;5.88;55.38;100482.38;4224549;33;33446;-84
2024/02/14 03:36:37;;;;;;;0.10;0.10;;;;;;;5.72;56.19;100492.22;4213743;33;33724;-84
2024/02/14 03:39:05;;;;;;;1.23;0.60;;;;;;;5.67;56.50;100493.16;4214118;33;33222;-83
2024/02/14 03:41:33;;;;;;;0.68;0.68;;;;;;;5.82;55.93;100487.72;4199690;33;32651;-84
2024/02/14 03:44:03;;;;;;;0.00;0.00;;;;;;;5.82;55.59;100487.72;4234960;33;34377;-84
2024/02/14 03:46:31;;;;;;;0.00;0.00;;;;;;;5.75;55.53;100497.44;4201979;33;33665;-84
2024/02/14 03:48:59;;;;;;;0.47;0.47;;;;;;;5.70;56.00;100499.25;4199465;33;33519;-84
2024/02/14 03:51:27;;;;;;;0.30;0.30;;;;;;;5.68;56.10;100506.25;4210180;33;34564;-84
2024/02/14 03:53:55;;;;;;;0.28;0.08;;;;;;;5.55;56.28;100509.88;4211477;33;32463;-84
2024/02/14 03:56:23;;;;;;;0.25;0.25;;;;;;;5.23;57.37;100513.75;4224441;33;33706;-85
2024/02/14 03:58:51;;;;;;;0.45;0.45;;;;;;;5.57;56.27;100511.63;4212447;33;33883;-84
2024/02/14 04:01:19;;;;;;;0.03;0.03;;;;;;;5.39;56.96;100527.53;4212039;33;34346;-84
2024/02/14 04:03:48;;;;;;;0.00;0.00;;;;;;;5.35;56.97;100523.22;4213795;33;33272;-83
2024/02/14 04:06:17;;;;;;;0.00;0.00;;;;;;;5.34;56.71;100532.81;4222318;33;34281;-84
2024/02/14 04:08:45;;;;;;;0.05;0.05;;;;;;;5.30;57.11;100533.75;4211650;33;33921;-84
2024/02/14 04:11:14;;;;;;;1.08;0.57;;;;;;;5.33;57.42;100544.19;4224131;33;35122;-84
2024/02/14 04:13:42;;;;;;;0.10;0.10;;;;;;;5.29;57.57;100539.00;4223368;33;33662;-84
2024/02/14 04:16:09;;;;;;;0.10;0.10;;;;;;;5.20;57.91;100549.56;4201115;33;34563;-83
2024/02/14 04:18:49;;;;;;;0.00;0.00;;;;;;;5.26;57.50;100545.13;4215818;33;32932;-83
2024/02/14 04:21:17;;;;;;;1.65;0.80;;;;;;;5.19;57.57;100548.69;4212966;33;32794;-83
2024/02/14 04:23:45;;;;;;;0.13;0.13;;;;;;;5.32;56.99;100547.69;4225686;33;32117;-83
2024/02/14 04:26:22;;;;;;;0.62;0.62;;;;;;;5.28;57.54;100564.31;4211008;33;32754;-82
2024/02/14 04:28:50;;;;;;;0.22;0.22;;;;;;;5.34;57.31;100559.00;4199347;33;33745;-83
2024/02/14 04:31:18;;;;;;;0.03;0.03;;;;;;;5.51;56.30;100563.22;4223232;33;34186;-83
2024/02/14 04:33:59;;;;;;;0.35;0.20;;;;;;;5.13;56.90;100564.47;4208094;33;32955;-83
2024/02/14 04:36:29;;;;;;;1.08;0.82;;;;;;;4.99;57.55;100566.34;4212718;33;33849;-82
2024/02/14 04:38:57;;;;;;;0.00;0.00;;;;;;;5.04;57.92;100567.19;4201166;33;34025;-83
2024/02/14 04:41:25;;;;;;;0.15;0.15;;;;;;;5.02;57.69;100574.16;4223533;33;34036;-83
2024/02/14 04:43:53;;;;;;;0.60;0.60;;;;;;;4.88;57.71;100571.66;4212897;33;34348;-83
2024/02/14 04:46:22;;;;;;;0.68;0.68;;;;;;;4.97;57.41;100573.31;4200428;33;33330;-82
2024/02/14 04:48:50;;;;;;;0.10;0.10;;;;;;;4.85;58.17;100575.19;4211715;33;34017;-82
2024/02/14 04:51:18;;;;;;;0.35;0.35;;;;;;;4.70;58.50;100580.53;4193799;33;34923;-82
2024/02/14 04:53:46;;;;;;;0.13;0.13;;;;;;;4.76;58.32;100579.63;4198912;33;33886;-82
2024/02/14 04:56:14;;;;;;;1.20;1.10;;;;;;;4.72;58.07;100584.00;4210925;33;33179;-83
2024/02/14 04:58:42;;;;;;;0.25;0.25;;;;;;;4.65;58.63;100587.50;4207416;33;33420;-82
2024/02/14 05:01:10;;;;;;;0.43;0.43;;;;;;;4.58;58.31;100578.84;4226192;33;33835;-82
2024/02/14 05:03:37;;;;;;;0.77;0.77;;;;;;;4.79;57.61;100585.66;4210719;33;32811;-82
2024/02/14 05:06:06;;;;;;;1.85;1.00;;;;;;;4.79;57.71;100580.44;4200381;33;33425;-82
2024/02/14 05:08:34;;;;;;;1.30;1.20;;;;;;;4.44;58.78;100593.78;4195021;33;33108;-83
2024/02/14 05:11:03;;;;;;;0.28;0.20;;;;;;;4.66;57.25;100585.81;4220569;33;34467;-83
2024/02/14 05:13:32;;;;;;;3.95;0.75;;;;;;;4.57;57.82;100595.44;4222230;33;32267;-83
2024/02/14 05:16:04;;;;;;;0.10;0.10;;;;;;;4.47;58.00;100590.28;4212826;33;33912;-83
2024/02/14 05:18:32;;;;;;;;;;;;;;;4.42;58.76;100595.53;4223185;33;34806;-83
2024/02/14 05:20:59;;;;;;;0.10;0.10;;;;;;;4.32;58.77;100592.13;4213922;33;34137;-82
2024/02/14 05:23:27;;;;;;;0.57;0.57;;;;;;;4.33;58.91;100595.59;4201144;33;33147;-83
2024/02/14 05:25:55;;;;;;;0.30;0.30;;;;;;;4.46;58.81;100596.37;4201334;33;32386;-82
2024/02/14 05:28:23;;;;;;;0.10;0.10;;;;;;;4.34;58.95;100598.19;4228114;33;31842;-83
2024/02/14 05:30:51;;;;;;;0.75;0.75;;;;;;;4.28;59.23;100603.47;4211641;33;34409;-83
2024/02/14 05:33:26;;;;;;;0.00;0.00;;;;;;;4.24;59.63;100606.97;4225758;33;33813;-83
2024/02/14 05:35:54;;;;;;;0.00;0.00;;;;;;;4.33;58.98;100612.12;4225529;33;33490;-84
2024/02/14 05:38:23;;;;;;;0.52;0.52;;;;;;;4.47;58.31;100613.81;4213855;33;34016;-84
2024/02/14 05:40:51;;;;;;;0.10;0.10;;;;;;;4.20;59.17;100622.66;4214880;33;34596;-84
2024/02/14 05:43:18;;;;;;;0.47;0.47;;;;;;;4.18;59.30;100624.41;4215644;33;32582;-84
2024/02/14 05:45:46;;;;;;;3.72;0.40;;;;;;;4.52;57.99;100617.28;4224558;33;32633;-84
2024/02/14 05:48:14;;;;;;;0.43;0.43;;;;;;;4.22;58.74;100624.38;4225236;33;33693;-85
2024/02/14 05:50:42;;;;;;;0.22;0.22;;;;;;;4.18;58.89;100633.13;4226343;33;34680;-84
2024/02/14 05:53:12;;;;;;;0.15;0.15;;;;;;;4.20;58.55;100627.88;4212026;33;33294;-84
2024/02/14 05:55:39;;;;;;;5.05;1.58;;;;;;;4.10;59.45;100635.78;4225018;33;33509;-82
2024/02/14 05:58:09;;;;;;;0.00;0.00;;;;;;;4.21;59.26;100627.00;4216625;33;33858;-81
2024/02/14 06:00:37;;;;;;;0.00;0.00;;;;;;;4.25;58.84;100637.44;4234502;33;34571;-81
2024/02/14 06:03:06;;;;;;;2.60;1.02;;;;;;;4.24;58.96;100638.31;4222913;33;34107;-81
2024/02/14 06:05:34;;;;;;;0.10;0.10;;;;;;;4.17;59.46;100651.41;4214374;33;33707;-82
2024/02/14 06:08:03;;;;;;;0.10;0.10;;;;;;;4.25;59.21;100639.19;4217034;33;34416;-81
2024/02/14 06:10:31;;;;;;;1.15;0.88;;;;;;;4.20;59.54;100648.81;4201188;33;33846;-82
2024/02/14 06:12:58;;;;;;;0.20;0.20;;;;;;;4.11;59.99;100657.53;4225863;33;33501;-81
2024/02/14 06:15:26;;;;;;;0.25;0.25;;;;;;;4.24;59.77;100656.63;4204313;33;33088;-84
2024/02/14 06:17:54;;;;;;;0.00;0.00;;;;;;;4.50;58.53;100642.53;4203397;33;33641;-85
2024/02/14 06:20:22;;;;;;;0.55;0.55;;;;;;;4.28;59.24;100652.25;4213288;33;34082;-83
2024/02/14 06:22:51;;;;;;;3.30;0.80;;;;;;;4.35;59.15;100653.97;4212060;33;34278;-85
2024/02/14 06:25:31;;;;;;;0.30;0.30;;;;;;;4.51;57.94;100649.50;4234051;33;33981;-82
2024/02/14 06:28:05;;;;;;;0.77;0.77;;;;;;;4.30;58.99;100653.97;4229335;33;34898;-83
2024/02/14 06:30:33;;;;;;;0.40;0.40;;;;;;;4.39;59.09;100662.66;4204726;33;33630;-83
2024/02/14 06:33:02;;;;;;;0.20;0.20;;;;;;;4.77;58.68;100652.84;4237213;33;33339;-83
2024/02/14 06:35:30;;;;;;;0.43;0.43;;;;;;;4.54;59.04;100652.12;4203091;33;34151;-83
2024/02/14 06:37:59;;;;;;;1.73;1.60;;;;;;;4.42;59.95;100666.16;4212284;33;34993;-84
2024/02/14 06:40:32;;;;;;;0.52;0.52;;;;;;;4.32;60.43;100675.78;4211525;33;32797;-84
2024/02/14 06:43:00;;;;;;;0.10;0.10;;;;;;;4.33;60.33;100674.87;4234438;33;32510;-84
2024/02/14 06:45:44;;;;;;;0.10;0.10;;;;;;;4.41;60.30;100677.44;4205425;33;32499;-83
2024/02/14 06:48:34;;;;;;;0.28;0.28;;;;;;;4.59;60.33;100669.53;4222357;33;33928;-83
2024/02/14 06:51:03;;;;;;;0.20;0.20;;;;;;;4.53;60.57;100671.31;4222348;33;34100;-83
2024/02/14 06:53:31;;;;;;;0.47;0.47;;;;;;;4.56;60.74;100676.53;4213492;33;33356;-84
2024/02/14 06:55:58;;;;;;;0.35;0.35;;;;;;;4.65;60.40;100679.06;4228117;33;32372;-83
2024/02/14 06:58:26;;;;;;;1.02;1.02;;;;;;;4.76;60.14;100684.28;4214267;33;32775;-82
2024/02/14 07:00:54;;;;;;;0.20;0.20;;;;;;;4.78;60.66;100688.59;4206364;33;33153;-82
2024/02/14 07:03:21;;;;;;;0.10;0.10;;;;;;;4.72;60.83;100688.66;4215611;33;32986;-83
2024/02/14 07:05:49;;;;;;;0.20;0.20;;;;;;;4.69;60.89;100683.41;4215669;33;34654;-83
2024/02/14 07:08:17;;;;;;;0.68;0.68;;;;;;;5.15;60.18;100693.59;4210580;33;33249;-87
2024/02/14 07:10:45;;;;;;;0.90;0.75;;;;;;;5.14;60.29;100689.25;4215304;33;32257;-81
2024/02/14 07:13:14;;;;;;;0.80;0.80;;;;;;;5.22;60.69;100694.41;4221420;33;33626;-82
2024/02/14 07:15:42;;;;;;;0.22;0.22;;;;;;;5.31;60.20;100695.22;4213846;33;33535;-82
2024/02/14 07:18:10;;;;;;;0.10;0.10;;;;;;;5.50;60.07;100695.06;4225021;33;32748;-82
2024/02/14 07:20:38;;;;;;;0.45;0.30;;;;;;;5.95;59.05;100696.41;4209606;33;34444;-83
2024/02/14 07:23:07;;;;;;;0.35;0.35;;;;;;;6.02;58.68;100690.22;4224543;33;34353;-82
2024/02/14 07:25:35;;;;;;;0.32;0.32;;;;;;;5.93;58.67;100685.06;4203232;33;31751;-82
2024/02/14 07:28:03;;;;;;;2.17;1.50;;;;;;;6.33;57.54;100688.13;4211077;33;34029;-82
2024/02/14 07:30:31;;;;;;;0.60;0.57;;;;;;;6.37;57.68;100692.44;4201966;33;33566;-82
2024/02/14 07:32:59;;;;;;;0.70;0.70;;;;;;;6.24;58.10;100679.50;4210539;33;33125;-82
2024/02/14 07:35:26;;;;;;;0.10;0.10;;;;;;;6.31;58.16;100682.00;4223397;33;33824;-82
2024/02/14 07:37:55;;;;;;;2.08;1.95;;;;;;;6.42;57.55;100695.00;4211444;33;34763;-82
2024/02/14 07:40:22;;;;;;;0.22;0.22;;;;;;;6.47;58.11;100698.44;4212284;33;34205;-81
2024/02/14 07:43:07;;;;;;;0.05;0.05;;;;;;;6.65;57.72;100686.84;4210159;33;32233;-82
2024/02/14 07:45:35;;;;;;;1.52;1.42;;;;;;;6.84;57.19;100690.09;4212267;33;33161;-82
2024/02/14 07:48:03;;;;;;;2.83;2.10;;;;;;;6.83;57.04;100691.81;4208404;33;31673;-83
2024/02/14 07:50:31;;;;;;;3.15;1.67;;;;;;;6.84;57.20;100697.97;4203169;33;31645;-82
2024/02/14 07:53:01;;;;;;;0.10;0.10;;;;;;;7.02;56.93;100697.66;4214258;33;32600;-82
2024/02/14 07:55:30;;;;;;;0.10;0.10;;;;;;;7.19;56.82;100692.16;4197095;33;32890;-82
2024/02/14 07:57:59;;;;;;;0.98;0.88;;;;;;;7.52;56.27;100688.13;4222104;33;33989;-83
2024/02/14 08:00:27;;;;;;;2.78;1.67;;;;;;;7.87;55.51;100690.12;4204974;33;32671;-83
2024/02/14 08:02:55;;;;;;;0.00;0.00;;;;;;;7.84;55.95;100694.59;4215362;33;33625;-83
2024/02/14 08:05:23;;;;;;;1.10;1.10;;;;;;;8.18;54.62;100695.69;4208479;33;34236;-82
2024/02/14 08:07:51;;;;;;;1.55;1.35;;;;;;;8.44;54.46;100697.81;4211385;33;34874;-83
2024/02/14 08:10:19;;;;;;;1.20;0.85;;;;;;;8.54;53.60;100697.63;4223525;33;33955;-82
2024/02/14 08:12:47;;;;;;;1.02;1.02;;;;;;;8.54;54.54;100705.50;4208220;33;32525;-82
2024/02/14 08:15:14;;;;;;;0.73;0.73;;;;;;;8.66;54.32;100686.84;4211010;33;31459;-83
2024/02/14 08:17:42;;;;;;;0.43;0.43;;;;;;;8.56;54.11;100698.47;4212751;33;33934;-83
2024/02/14 08:20:13;;;;;;;1.27;1.23;;;;;;;8.84;53.79;100691.69;4191541;33;32680;-82
2024/02/14 08:22:52;;;;;;;0.62;0.62;;;;;;;9.00;53.38;100696.62;4201411;33;33161;-83
2024/02/14 08:25:19;;;;;;;0.30;0.30;;;;;;;9.14;52.24;100690.12;4221720;33;33534;-83
2024/02/14 08:27:47;;;;;;;0.28;0.28;;;;;;;9.40;50.67;100697.41;4210520;33;33815;-83
2024/02/14 08:30:15;;;;;;;0.47;0.47;;;;;;;9.21;51.82;100701.41;4220787;33;31899;-83
2024/02/14 08:32:44;;;;;;;0.28;0.28;;;;;;;9.31;49.41;100697.63;4197703;33;32863;-83
2024/02/14 08:35:13;;;;;;;0.62;0.62;;;;;;;9.55;49.56;100695.31;4222194;33;32886;-83
2024/02/14 08:37:41;;;;;;;0.13;0.13;;;;;;;9.31;47.64;100692.38;4215512;33;33106;-83
2024/02/14 08:40:12;;;;;;;1.00;0.95;;;;;;;9.30;48.63;100698.50;4199259;33;34217;-81
2024/02/14 08:42:40;;;;;;;0.68;0.68;;;;;;;9.53;48.44;100697.97;4210439;33;32841;-85
2024/02/14 08:45:09;;;;;;;0.47;0.47;;;;;;;9.61;47.87;100701.28;4209588;33;33172;-82
2024/02/14 08:47:37;;;;;;;0.00;0.00;;;;;;;9.52;47.55;100700.63;4199593;33;34029;-84
2024/02/14 08:50:06;;;;;;;0.30;0.30;;;;;;;9.66;48.01;100699.38;4201173;33;34832;-84
2024/02/14 08:52:34;;;;;;;2.25;1.45;;;;;;;10.00;47.39;100688.81;4211064;33;34343;-84
2024/02/14 08:55:02;;;;;;;1.08;1.00;;;;;;;10.05;47.34;100695.72;4220978;33;32512;-83
2024/02/14 08:57:31;;;;;;;12.40;5.97;;;;;;;10.21;46.82;100697.06;4211029;33;31791;-83
2024/02/14 09:00:00;;;;;;;1.80;1.70;;;;;;;10.34;47.00;100695.81;4202449;33;32839;-84
2024/02/14 09:02:30;;;;;;;1.30;1.20;;;;;;;10.23;47.08;100680.25;4227176;33;33368;-84
2024/02/14 09:04:58;;;;;;;0.62;0.62;;;;;;;10.13;48.00;100688.47;4216976;33;34936;-84
2024/02/14 09:07:26;;;;;;;3.20;1.85;;;;;;;10.15;48.01;100691.94;4216502;33;34469;-84
2024/02/14 09:09:54;;;;;;;0.80;0.75;;;;;;;10.80;45.28;100685.69;4215197;33;34360;-84
2024/02/14 09:12:22;;;;;;;1.73;0.62;;;;;;;10.82;44.85;100689.13;4208689;33;32113;-83
2024/02/14 09:14:49;;;;;;;0.30;0.30;;;;;;;10.50;46.11;100680.41;4226762;33;34698;-84
2024/02/14 09:17:17;;;;;;;1.05;1.05;;;;;;;10.83;45.05;100678.53;4212777;33;34687;-84
2024/02/14 11:29:55;;;;;;;4.22;1.40;;;;;;;14.77;37.17;100603.88;4224874;33;33988;-84
2024/02/14 11:32:24;;;;;;;0.10;0.10;;;;;;;14.34;36.88;100600.56;4224053;33;34634;-85
2024/02/14 11:34:56;;;;;;;2.17;1.50;;;;;;;14.19;38.04;100600.38;4214879;33;34240;-84
2024/02/14 11:37:36;;;;;;;1.02;0.90;;;;;;;14.79;37.77;100598.47;4236861;33;34325;-84
2024/02/14 11:40:07;;;;;;;0.55;0.47;;;;;;;14.89;37.28;100589.09;4228547;33;34735;-84
2024/02/14 11:42:35;;;;;;;0.10;0.10;;;;;;;15.44;35.89;100575.69;4185091;33;34408;-84
2024/02/14 11:45:02;;;;;;;0.10;0.10;;;;;;;14.82;36.00;100587.69;4202936;33;32601;-84
2024/02/14 11:47:31;;;;;;;0.10;0.10;;;;;;;14.43;37.19;100575.34;4222549;33;33607;-84
2024/02/14 11:50:00;;;;;;;2.35;1.00;;;;;;;14.59;37.29;100579.03;4224625;33;33448;-84
2024/02/14 11:52:27;;;;;;;0.50;0.50;;;;;;;15.09;36.17;100578.31;4208027;33;34048;-84
2024/02/14 11:54:57;;;;;;;0.15;0.15;;;;;;;14.29;38.26;100567.13;4211459;33;32945;-85
2024/02/14 11:57:26;;;;;;;0.45;0.45;;;;;;;14.57;37.17;100570.28;4205998;34;32922;-84
2024/02/14 11:59:55;;;;;;;3.72;0.90;;;;;;;14.93;35.97;100572.06;4212920;33;34696;-84
2024/02/14 12:02:23;;;;;;;0.15;0.15;;;;;;;15.04;35.21;100569.72;4197927;33;33894;-84
2024/02/14 12:04:53;;;;;;;0.00;0.00;;;;;;;15.08;34.04;100563.31;4228524;33;34565;-84
2024/02/14 12:07:22;;;;;;;0.00;0.00;;;;;;;14.39;36.02;100570.25;4215407;33;32871;-84
2024/02/14 12:09:51;;;;;;;0.20;0.20;;;;;;;14.07;37.40;100578.78;4234797;33;35040;-84
2024/02/14 12:12:19;;;;;;;1.48;0.68;;;;;;;14.33;36.19;100574.03;4189451;33;34381;-84
2024/02/14 12:14:49;;;;;;;0.15;0.15;;;;;;;14.49;37.06;100566.25;4206877;33;32552;-83
2024/02/14 12:17:21;;;;;;;0.10;0.10;;;;;;;14.89;34.34;100569.63;4202950;33;32342;-83
2024/02/14 12:19:50;;;;;;;0.13;0.13;;;;;;;14.76;33.91;100567.56;4197580;33;33351;-83
2024/02/14 12:30:55;;;;;;;1.25;1.15;;;;;;;13.56;36.77;100577.50;4225002;33;34755;-83
2024/02/14 12:33:25;;;;;;;0.17;0.17;;;;;;;13.73;36.35;100570.62;4204878;33;32509;-83
2024/02/14 12:35:56;;;;;;;0.17;0.17;;;;;;;13.99;35.67;100559.66;4225694;33;33490;-82
2024/02/14 12:38:24;;;;;;;0.17;0.17;;;;;;;14.01;35.74;100556.97;4215145;33;34035;-82
2024/02/14 12:40:54;;;;;;;0.13;0.13;;;;;;;13.68;37.14;100564.66;4226510;33;34666;-83
2024/02/14 12:43:22;;;;;;;2.37;1.10;;;;;;;13.43;37.26;100560.38;4227646;33;34316;-83
2024/02/14 12:45:49;;;;;;;0.00;0.00;;;;;;;12.79;38.73;100563.06;4203293;33;32734;-83
2024/02/14 12:48:27;;;;;;;2.37;1.15;;;;;;;13.89;35.85;100549.53;4207613;33;32114;-82
2024/02/14 12:50:57;;;;;;;0.10;0.10;;;;;;;13.84;35.43;100549.75;4220758;33;32758;-82
2024/02/14 12:53:26;;;;;;;0.50;0.50;;;;;;;13.76;35.70;100551.88;4203156;33;32626;-82
2024/02/14 12:55:54;;;;;;;1.27;0.30;;;;;;;13.21;37.83;100552.47;4219190;33;34500;-83
2024/02/14 12:58:22;;;;;;;1.42;0.60;;;;;;;13.91;36.08;100540.59;4203606;33;33653;-82
2024/02/14 13:00:50;;;;;;;0.13;0.13;;;;;;;13.82;35.72;100538.34;4218071;33;34009;-82
2024/02/14 13:03:19;;;;;;;0.00;0.00;;;;;;;13.44;37.38;100550.66;4205118;33;33934;-83
2024/02/14 13:05:47;;;;;;;0.75;0.40;;;;;;;13.90;36.33;100540.62;4194212;33;33587;-82
2024/02/14 13:08:16;;;;;;;1.60;1.02;;;;;;;14.06;35.87;100539.88;4219117;33;33458;-83
2024/02/14 13:10:44;;;;;;;2.20;1.00;;;;;;;14.14;35.23;100541.31;4231163;33;35228;-83
2024/02/14 13:13:14;;;;;;;10.63;0.47;;;;;;;14.05;36.07;100540.81;4223726;33;32165;-82
2024/02/14 13:15:44;;;;;;;0.88;0.57;;;;;;;13.95;35.41;100546.59;4215710;33;34242;-82
2024/02/14 13:18:12;;;;;;;0.08;0.08;;;;;;;13.57;36.09;100541.22;4225021;33;34277;-82
2024/02/14 13:20:40;;;;;;;0.13;0.13;;;;;;;13.31;37.77;100550.31;4225463;33;33347;-82
2024/02/14 13:23:09;;;;;;;0.00;0.00;;;;;;;13.56;37.26;100537.72;4203889;33;34222;-84
2024/02/14 13:25:37;;;;;;;5.47;1.58;;;;;;;13.76;36.51;100535.94;4213642;33;34300;-83
2024/02/14 13:28:05;;;;;;;0.20;0.20;;;;;;;13.75;36.11;100537.75;4215997;33;32129;-85
2024/02/14 13:30:33;;;;;;;0.47;0.47;;;;;;;13.56;36.62;100539.50;4204747;33;34088;-85
2024/02/14 13:33:00;;;;;;;0.20;0.20;;;;;;;13.47;36.47;100546.06;4218394;33;33955;-85
2024/02/14 13:35:29;;;;;;;0.10;0.10;;;;;;;13.12;38.61;100550.22;4215499;33;34762;-85
2024/02/14 13:37:56;;;;;;;0.85;0.43;;;;;;;13.32;38.27;100541.44;4219427;33;34247;-85
2024/02/14 13:40:24;;;;;;;0.00;0.00;;;;;;;13.56;37.45;100545.66;4213550;33;32413;-84
2024/02/14 13:42:52;;;;;;;0.00;0.00;;;;;;;13.18;38.48;100543.78;4223560;33;33551;-85
2024/02/14 13:45:20;;;;;;;0.47;0.47;;;;;;;13.44;37.07;100546.22;4200003;33;35815;-85
2024/02/14 13:47:48;;;;;;;0.05;0.05;;;;;;;13.57;37.23;100536.78;4217877;33;34025;-84
2024/02/14 13:50:16;;;;;;;0.37;0.20;;;;;;;13.49;36.60;100544.22;4202234;33;32474;-85
2024/02/14 13:52:44;;;;;;;0.60;0.57;;;;;;;13.51;37.88;100546.81;4217374;33;32910;-84
2024/02/14 13:55:12;;;;;;;0.00;0.00;;;;;;;13.24;38.80;100543.53;4201996;33;34301;-85
2024/02/14 13:57:40;;;;;;;0.08;0.08;;;;;;;13.23;39.27;100540.03;4223249;33;33409;-84
2024/02/14 14:00:09;;;;;;;0.10;0.10;;;;;;;13.34;37.85;100542.25;4224628;33;31778;-84
2024/02/14 14:02:41;;;;;;;0.32;0.32;;;;;;;13.62;36.79;100541.00;4215662;33;35736;-85